Time;durP1;ratioP1;P1;durP2;ratioP2;P2;SDS_P1;SDS_P2;PMS_P1;PMS_P2;Temp;Humidity;BMP_temperature;BMP_pressure;BME280_temperature;BME280_humidity;BME280_pressure;Samples;Min_cycle;Max_cycle;Signal;HPM_P1;HPM_P2
2023/01/23 00:01:17;;;;;;;5.87;5.27;;;5.00;91.90;;;;;;932354;149;27457;-80
2023/01/23 00:03:43;;;;;;;6.37;5.17;;;5.00;92.10;;;;;;933680;150;27392;-80
2023/01/23 00:06:12;;;;;;;5.40;4.90;;;5.00;92.00;;;;;;932761;150;27360;-80
2023/01/23 00:08:39;;;;;;;5.73;5.13;;;5.00;92.10;;;;;;933853;150;27403;-80
2023/01/23 00:11:06;;;;;;;5.50;4.90;;;5.00;92.20;;;;;;933945;150;27458;-80
2023/01/23 00:13:32;;;;;;;5.80;5.20;;;5.10;92.20;;;;;;931717;150;28659;-80
2023/01/23 00:15:59;;;;;;;5.13;4.63;;;5.10;92.20;;;;;;933745;150;27420;-80
2023/01/23 00:18:25;;;;;;;6.40;5.20;;;5.10;92.20;;;;;;934125;150;27344;-80
2023/01/23 00:20:52;;;;;;;5.90;5.30;;;5.10;92.20;;;;;;933380;150;27328;-79
2023/01/23 00:23:18;;;;;;;5.70;5.20;;;5.10;92.10;;;;;;932999;150;27397;-78
2023/01/23 00:25:45;;;;;;;6.40;5.20;;;5.10;92.10;;;;;;933415;150;27331;-78
2023/01/23 00:28:12;;;;;;;4.77;4.23;;;5.10;92.00;;;;;;932202;150;27390;-78
2023/01/23 00:30:38;;;;;;;5.33;4.83;;;5.10;92.00;;;;;;933997;150;27345;-78
2023/01/23 00:33:05;;;;;;;7.03;5.03;;;5.10;92.00;;;;;;933895;150;27356;-78
2023/01/23 00:35:31;;;;;;;5.90;4.73;;;5.00;91.90;;;;;;933290;150;28576;-78
2023/01/23 00:37:58;;;;;;;6.10;5.30;;;5.00;91.80;;;;;;933658;150;27321;-78
2023/01/23 00:40:25;;;;;;;5.77;5.27;;;5.00;91.80;;;;;;932857;150;27383;-78
2023/01/23 00:42:51;;;;;;;7.27;5.30;;;5.00;91.80;;;;;;919536;151;27362;-78
2023/01/23 00:45:18;;;;;;;6.07;5.47;;;4.90;91.70;;;;;;934004;149;27377;-78
2023/01/23 00:47:44;;;;;;;5.30;4.80;;;4.90;91.70;;;;;;933494;149;27465;-78
2023/01/23 00:50:11;;;;;;;6.00;5.30;;;4.90;91.70;;;;;;933504;149;27264;-78
2023/01/23 00:52:37;;;;;;;5.50;4.90;;;4.80;91.70;;;;;;918069;151;27353;-78
2023/01/23 00:55:04;;;;;;;5.20;4.73;;;4.80;91.80;;;;;;918266;151;27424;-78
2023/01/23 00:57:31;;;;;;;5.33;4.67;;;4.80;91.80;;;;;;933698;149;28196;-78
2023/01/23 00:59:57;;;;;;;5.97;5.23;;;4.80;91.90;;;;;;933756;149;27390;-78
2023/01/23 01:02:24;;;;;;;6.27;5.33;;;4.70;91.90;;;;;;938765;148;27478;-78
2023/01/23 01:04:50;;;;;;;6.13;5.53;;;4.70;92.00;;;;;;949735;150;27340;-78
2023/01/23 01:07:17;;;;;;;6.03;5.13;;;4.70;92.10;;;;;;949973;148;27374;-78
2023/01/23 01:09:44;;;;;;;6.10;5.40;;;4.70;92.20;;;;;;934724;151;27355;-77
2023/01/23 01:12:10;;;;;;;5.47;4.97;;;4.70;92.30;;;;;;933903;151;27471;-78
2023/01/23 01:14:37;;;;;;;5.87;5.27;;;4.70;92.30;;;;;;931790;151;27384;-78
2023/01/23 01:17:03;;;;;;;5.80;5.20;;;4.70;92.20;;;;;;946943;148;27331;-78
2023/01/23 01:19:30;;;;;;;5.90;5.33;;;4.70;92.10;;;;;;949794;148;27941;-78
2023/01/23 01:21:57;;;;;;;6.63;5.33;;;4.60;91.90;;;;;;950715;148;27444;-78
2023/01/23 01:24:25;;;;;;;5.77;5.17;;;4.60;91.80;;;;;;950758;148;27266;-78
2023/01/23 01:26:50;;;;;;;5.77;5.13;;;4.60;91.60;;;;;;949202;148;27902;-78
2023/01/23 01:29:16;;;;;;;7.07;5.33;;;4.50;91.50;;;;;;950954;148;27377;-78
2023/01/23 01:31:43;;;;;;;6.03;5.20;;;4.40;91.40;;;;;;934250;151;27430;-78
2023/01/23 01:34:09;;;;;;;6.30;5.50;;;4.30;91.50;;;;;;932554;151;27400;-78
2023/01/23 01:36:36;;;;;;;5.57;5.07;;;4.30;91.50;;;;;;932108;151;27381;-78
2023/01/23 01:39:03;;;;;;;6.37;5.43;;;4.20;91.50;;;;;;947657;151;27359;-78
2023/01/23 01:41:29;;;;;;;5.97;4.83;;;4.10;91.60;;;;;;950112;148;27412;-78
2023/01/23 01:43:56;;;;;;;5.77;5.20;;;4.00;91.60;;;;;;933515;151;27307;-78
2023/01/23 01:46:22;;;;;;;5.97;5.23;;;4.00;91.70;;;;;;950270;148;27419;-78
2023/01/23 01:49:10;;;;;;;6.07;5.47;;;3.90;91.70;;;;;;950233;148;27326;-78
2023/01/23 01:51:37;;;;;;;5.77;4.63;;;3.80;91.80;;;;;;932711;151;27475;-78
2023/01/23 01:54:06;;;;;;;6.30;5.70;;;3.70;91.80;;;;;;946948;148;27414;-78
2023/01/23 01:56:32;;;;;;;5.97;5.10;;;3.60;91.90;;;;;;950145;148;27330;-78
2023/01/23 01:58:59;;;;;;;7.13;5.67;;;3.60;91.70;;;;;;930896;151;27653;-78
2023/01/23 02:01:26;;;;;;;7.40;5.60;;;3.50;92.10;;;;;;950692;148;27454;-78
2023/01/23 02:03:52;;;;;;;5.37;4.70;;;3.40;92.20;;;;;;943131;150;27368;-78
2023/01/23 02:06:19;;;;;;;6.43;5.37;;;3.40;92.30;;;;;;932971;150;27308;-78
2023/01/23 02:08:45;;;;;;;5.97;5.27;;;3.30;92.40;;;;;;935389;149;27429;-78
2023/01/23 02:11:14;;;;;;;5.60;4.73;;;3.30;92.50;;;;;;934458;150;27493;-78
2023/01/23 02:13:41;;;;;;;6.10;5.50;;;3.20;92.50;;;;;;933584;149;27804;-78
2023/01/23 02:16:08;;;;;;;6.83;5.40;;;3.20;92.60;;;;;;933633;149;27420;-78
2023/01/23 02:18:34;;;;;;;7.57;5.60;;;3.10;92.80;;;;;;934732;149;27281;-78
2023/01/23 02:21:01;;;;;;;7.03;5.70;;;3.10;93.10;;;;;;935043;149;27374;-78
2023/01/23 02:23:33;;;;;;;7.20;5.93;;;3.10;93.40;;;;;;933540;149;27399;-78
2023/01/23 02:26:00;;;;;;;6.40;5.53;;;3.10;93.70;;;;;;933571;149;27413;-78
2023/01/23 02:28:36;;;;;;;8.43;6.40;;;3.10;94.00;;;;;;934627;149;27333;-78
2023/01/23 02:31:02;;;;;;;7.27;6.53;;;3.10;94.30;;;;;;933879;149;27305;-78
2023/01/23 02:33:29;;;;;;;6.20;5.60;;;3.10;94.50;;;;;;934142;149;27449;-78
2023/01/23 02:35:55;;;;;;;7.97;5.97;;;3.20;94.60;;;;;;935465;149;27397;-78
2023/01/23 02:38:22;;;;;;;7.87;6.20;;;3.20;94.70;;;;;;934358;149;27356;-78
2023/01/23 02:40:48;;;;;;;7.67;6.37;;;3.30;94.80;;;;;;932946;149;27306;-78
2023/01/23 02:43:15;;;;;;;7.53;6.17;;;3.30;94.90;;;;;;934227;149;27368;-78
2023/01/23 02:45:42;;;;;;;6.90;5.63;;;3.40;94.80;;;;;;933052;150;27398;-78
2023/01/23 02:48:08;;;;;;;6.80;5.80;;;3.40;95.10;;;;;;933791;149;27332;-78
2023/01/23 02:50:35;;;;;;;7.00;5.77;;;3.50;94.80;;;;;;934464;150;27394;-78
2023/01/23 02:53:01;;;;;;;6.60;5.90;;;3.60;94.90;;;;;;934414;149;27305;-78
2023/01/23 02:55:32;;;;;;;6.87;5.83;;;3.60;94.80;;;;;;935508;149;27460;-78
2023/01/23 03:00:14;;;;;;;6.77;5.83;;;3.60;94.80;;;;;;933912;151;27430;-78
2023/01/23 03:00:24;;;;;;;6.60;5.77;;;3.70;94.90;;;;;;932955;149;27310;-78
2023/01/23 03:02:50;;;;;;;6.63;6.03;;;3.70;94.90;;;;;;934772;150;27414;-79
2023/01/23 03:05:17;;;;;;;7.97;6.93;;;3.80;94.90;;;;;;934377;150;27737;-79
2023/01/23 03:07:43;;;;;;;7.70;6.57;;;3.90;94.90;;;;;;919708;152;28463;-79
2023/01/23 03:10:10;;;;;;;6.83;6.03;;;3.90;94.80;;;;;;917979;152;27365;-79
2023/01/23 03:12:42;;;;;;;7.57;6.17;;;4.00;94.60;;;;;;918804;152;27464;-79
2023/01/23 03:15:06;;;;;;;6.27;5.67;;;4.00;94.50;;;;;;917546;152;27501;-79
2023/01/23 03:17:33;;;;;;;6.03;5.43;;;4.00;94.40;;;;;;919497;152;27471;-79
2023/01/23 03:20:00;;;;;;;6.93;5.50;;;4.10;94.40;;;;;;935515;150;27301;-79
2023/01/23 03:22:26;;;;;;;6.83;5.87;;;4.10;94.20;;;;;;918943;152;27346;-79
2023/01/23 03:24:52;;;;;;;7.17;5.50;;;4.10;94.20;;;;;;935391;150;27340;-78
2023/01/23 03:27:19;;;;;;;5.63;5.00;;;4.20;94.10;;;;;;935559;149;27475;-78
2023/01/23 03:32:30;;;;;;;6.17;5.23;;;4.20;94.00;;;;;;934402;150;27427;-78
2023/01/23 03:34:58;;;;;;;6.70;5.77;;;4.20;93.90;;;;;;934513;153;27345;-78
2023/01/23 03:37:23;;;;;;;5.23;4.73;;;4.30;93.90;;;;;;934167;150;27479;-78
2023/01/23 03:42:35;;;;;;;5.77;5.17;;;4.30;93.80;;;;;;936037;149;27367;-78
2023/01/23 03:45:02;;;;;;;5.23;4.63;;;4.30;93.80;;;;;;935845;149;27281;-78
2023/01/23 03:47:28;;;;;;;6.23;5.47;;;4.30;93.80;;;;;;932571;150;27430;-78
2023/01/23 03:49:55;;;;;;;6.93;5.87;;;4.30;93.80;;;;;;933578;149;27467;-78
2023/01/23 03:52:21;;;;;;;5.90;5.27;;;4.40;93.90;;;;;;934890;149;27473;-77
2023/01/23 03:54:48;;;;;;;5.70;5.10;;;4.40;93.80;;;;;;934994;149;27343;-77
2023/01/23 03:57:14;;;;;;;6.70;5.47;;;4.40;94.00;;;;;;933578;149;27373;-78
2023/01/23 03:59:41;;;;;;;7.27;5.23;;;4.40;93.60;;;;;;934267;150;27321;-79
2023/01/23 04:02:08;;;;;;;6.40;5.70;;;4.40;93.60;;;;;;934906;149;27376;-76
2023/01/23 04:04:34;;;;;;;6.20;5.60;;;4.50;93.60;;;;;;939692;148;28409;-76
2023/01/23 04:07:01;;;;;;;6.23;5.63;;;4.50;93.60;;;;;;947228;148;27735;-76
2023/01/23 04:09:27;;;;;;;6.27;5.67;;;4.50;93.50;;;;;;948176;148;27721;-76
2023/01/23 04:11:54;;;;;;;7.60;5.83;;;4.50;93.40;;;;;;946934;148;27459;-79
2023/01/23 04:14:21;;;;;;;5.57;5.07;;;4.50;93.40;;;;;;947468;148;27370;-76
2023/01/23 04:16:47;;;;;;;6.23;5.63;;;4.50;93.70;;;;;;946945;148;27666;-77
2023/01/23 04:19:14;;;;;;;6.07;5.10;;;4.50;93.30;;;;;;947166;148;27318;-78
2023/01/23 04:21:40;;;;;;;6.77;6.07;;;4.50;93.40;;;;;;948092;148;27386;-78
2023/01/23 04:24:07;;;;;;;6.60;5.80;;;4.50;93.30;;;;;;947176;151;27443;-76
2023/01/23 04:26:34;;;;;;;6.20;5.40;;;4.50;93.30;;;;;;946931;148;27369;-76
2023/01/23 04:29:00;;;;;;;6.87;5.20;;;4.50;93.30;;;;;;946926;148;27334;-76
2023/01/23 04:31:27;;;;;;;6.03;5.43;;;4.60;93.30;;;;;;948438;148;27368;-77
2023/01/23 04:33:53;;;;;;;6.43;5.80;;;4.60;93.20;;;;;;931434;151;27331;-79
2023/01/23 04:36:20;;;;;;;7.10;6.07;;;4.60;93.50;;;;;;925355;152;27473;-77
2023/01/23 04:38:46;;;;;;;6.87;5.80;;;4.60;93.20;;;;;;947521;148;27327;-76
2023/01/23 04:41:13;;;;;;;6.53;5.67;;;4.60;93.10;;;;;;947029;148;27358;-77
2023/01/23 04:43:40;;;;;;;6.20;5.60;;;4.60;93.10;;;;;;946000;148;27323;-78
2023/01/23 04:46:06;;;;;;;6.03;5.30;;;4.60;93.20;;;;;;946657;148;27362;-76
2023/01/23 04:48:33;;;;;;;6.10;5.50;;;4.60;93.10;;;;;;947572;148;27450;-76
2023/01/23 04:50:59;;;;;;;6.20;5.60;;;4.50;93.10;;;;;;946634;148;27474;-76
2023/01/23 04:53:26;;;;;;;6.30;5.70;;;4.50;93.10;;;;;;947110;148;27278;-78
2023/01/23 04:55:52;;;;;;;5.83;5.03;;;4.50;93.10;;;;;;946320;149;27330;-77
2023/01/23 04:58:19;;;;;;;5.67;5.07;;;4.50;93.10;;;;;;947362;148;27366;-76
2023/01/23 05:00:46;;;;;;;5.57;5.07;;;4.50;93.20;;;;;;946524;149;28620;-76
2023/01/23 05:03:12;;;;;;;6.37;5.07;;;4.60;93.20;;;;;;948156;148;27337;-76
2023/01/23 05:05:39;;;;;;;6.20;4.87;;;4.50;93.10;;;;;;949433;148;27384;-77
2023/01/23 05:08:05;;;;;;;5.63;4.50;;;4.50;93.20;;;;;;952151;148;27356;-76
2023/01/23 05:10:32;;;;;;;5.97;5.30;;;4.60;93.20;;;;;;951032;148;27357;-76
2023/01/23 05:12:59;;;;;;;4.80;4.30;;;4.50;93.20;;;;;;951717;148;27403;-77
2023/01/23 05:15:25;;;;;;;4.40;4.00;;;4.60;93.30;;;;;;951602;148;27317;-77
2023/01/23 05:17:52;;;;;;;5.23;4.43;;;4.60;93.30;;;;;;951917;148;27308;-77
2023/01/23 05:20:19;;;;;;;6.00;5.03;;;4.60;93.40;;;;;;951218;148;27365;-76
2023/01/23 05:22:53;;;;;;;4.97;4.47;;;4.60;93.20;;;;;;950088;147;27403;-78
2023/01/23 05:25:23;;;;;;;4.97;4.37;;;4.60;93.30;;;;;;951690;148;27458;-76
2023/01/23 05:27:50;;;;;;;5.03;4.60;;;4.60;93.20;;;;;;951315;148;27365;-79
2023/01/23 05:30:16;;;;;;;4.20;3.80;;;4.70;93.30;;;;;;935052;151;27385;-77
2023/01/23 05:32:43;;;;;;;4.83;4.33;;;4.70;93.30;;;;;;951735;150;27299;-77
2023/01/23 05:35:09;;;;;;;4.67;4.23;;;4.70;93.20;;;;;;951279;148;27336;-77
2023/01/23 05:37:36;;;;;;;4.63;4.20;;;4.70;93.20;;;;;;951391;148;27301;-78
2023/01/23 05:40:02;;;;;;;4.77;4.37;;;4.70;93.20;;;;;;951042;148;27375;-78
2023/01/23 05:42:29;;;;;;;5.10;4.57;;;4.70;93.20;;;;;;951511;148;27450;-76
2023/01/23 05:44:56;;;;;;;5.20;4.67;;;4.80;93.10;;;;;;950350;148;27344;-77
2023/01/23 05:47:22;;;;;;;4.60;4.20;;;4.80;93.10;;;;;;951786;148;27262;-76
2023/01/23 05:49:49;;;;;;;5.07;4.57;;;4.80;93.10;;;;;;952056;148;27367;-76
2023/01/23 05:52:15;;;;;;;5.00;4.50;;;4.80;93.00;;;;;;951585;148;27379;-76
2023/01/23 05:54:42;;;;;;;4.60;4.20;;;4.80;93.00;;;;;;950839;148;27326;-76
2023/01/23 05:57:09;;;;;;;4.87;4.40;;;4.80;93.00;;;;;;950283;148;27345;-76
2023/01/23 05:59:35;;;;;;;4.17;3.73;;;4.80;92.90;;;;;;951717;148;27293;-78
2023/01/23 06:02:02;;;;;;;4.90;4.40;;;4.90;92.90;;;;;;951537;147;27847;-77
2023/01/23 06:04:28;;;;;;;6.23;4.50;;;4.90;92.80;;;;;;952143;148;27376;-76
2023/01/23 06:06:55;;;;;;;5.23;3.80;;;4.90;92.80;;;;;;948326;148;27378;-77
2023/01/23 06:09:21;;;;;;;4.13;3.83;;;4.90;92.80;;;;;;947042;148;27365;-78
2023/01/23 06:11:48;;;;;;;4.43;3.73;;;4.90;92.90;;;;;;947128;148;27319;-79
2023/01/23 06:14:15;;;;;;;3.97;3.57;;;4.90;92.90;;;;;;946059;148;27887;-77
2023/01/23 06:16:41;;;;;;;5.83;3.90;;;4.90;92.90;;;;;;947603;148;27473;-77
2023/01/23 06:19:08;;;;;;;5.27;4.50;;;4.90;92.80;;;;;;947605;148;27365;-78
2023/01/23 06:21:34;;;;;;;5.10;4.60;;;4.90;92.80;;;;;;947179;149;27440;-76
2023/01/23 06:24:02;;;;;;;5.50;4.60;;;4.90;92.80;;;;;;947371;148;28141;-79
2023/01/23 06:26:28;;;;;;;4.90;4.40;;;4.90;92.80;;;;;;946673;148;27850;-76
2023/01/23 06:28:54;;;;;;;6.33;5.10;;;4.90;92.80;;;;;;946821;148;27419;-77
2023/01/23 06:31:21;;;;;;;5.27;4.67;;;5.00;92.70;;;;;;947524;148;27358;-77
2023/01/23 06:33:51;;;;;;;5.73;5.20;;;5.00;92.70;;;;;;947572;148;27317;-77
2023/01/23 06:36:17;;;;;;;4.90;4.50;;;5.00;92.70;;;;;;931476;151;27401;-76
2023/01/23 06:38:44;;;;;;;4.93;4.43;;;5.00;92.70;;;;;;948112;151;27339;-76
2023/01/23 06:41:10;;;;;;;4.70;4.20;;;5.00;92.70;;;;;;948181;151;27352;-76
2023/01/23 06:43:37;;;;;;;4.60;4.20;;;4.90;92.60;;;;;;948242;151;27323;-76
2023/01/23 06:46:03;;;;;;;4.53;4.13;;;5.00;92.70;;;;;;947370;151;27261;-79
2023/01/23 06:48:30;;;;;;;4.53;4.10;;;5.00;92.70;;;;;;947546;149;27979;-77
2023/01/23 06:50:57;;;;;;;4.53;4.13;;;4.90;92.60;;;;;;947116;151;27276;-76
2023/01/23 06:53:23;;;;;;;4.23;3.90;;;4.90;92.50;;;;;;946835;151;27394;-76
2023/01/23 06:55:50;;;;;;;8.00;4.40;;;4.90;92.50;;;;;;946349;151;27396;-76
2023/01/23 06:58:16;;;;;;;4.50;4.10;;;4.90;92.50;;;;;;948087;151;27668;-79
2023/01/23 07:00:43;;;;;;;4.40;4.00;;;4.90;92.40;;;;;;943581;151;28282;-76
2023/01/23 07:03:12;;;;;;;4.17;3.77;;;4.90;92.30;;;;;;942981;149;27380;-75
2023/01/23 07:05:42;;;;;;;4.53;4.03;;;4.80;92.20;;;;;;943536;151;27441;-76
2023/01/23 07:08:06;;;;;;;4.63;4.23;;;4.80;92.00;;;;;;947480;151;27277;-79
2023/01/23 07:10:32;;;;;;;5.03;4.50;;;4.70;91.80;;;;;;948869;148;27322;-76
2023/01/23 07:12:59;;;;;;;4.70;4.20;;;4.70;91.80;;;;;;948266;148;27377;-76
2023/01/23 07:15:25;;;;;;;4.97;4.27;;;4.60;91.80;;;;;;947492;148;27380;-77
2023/01/23 07:17:52;;;;;;;4.27;3.87;;;4.60;91.80;;;;;;946966;151;27349;-78
2023/01/23 07:20:19;;;;;;;4.27;3.87;;;4.50;91.80;;;;;;948264;151;27315;-79
2023/01/23 07:22:45;;;;;;;4.10;3.70;;;4.40;92.00;;;;;;948054;151;27488;-76
2023/01/23 07:25:12;;;;;;;5.00;4.50;;;4.40;92.20;;;;;;947653;151;27319;-77
2023/01/23 07:27:38;;;;;;;5.20;4.00;;;4.40;92.50;;;;;;948885;148;27400;-76
2023/01/23 07:30:05;;;;;;;8.10;4.53;;;4.40;92.80;;;;;;947624;151;27287;-79
2023/01/23 07:32:31;;;;;;;4.90;4.40;;;4.40;93.10;;;;;;947073;151;27408;-79
2023/01/23 07:34:58;;;;;;;4.33;3.93;;;4.40;93.30;;;;;;947448;151;28206;-77
2023/01/23 07:37:25;;;;;;;4.40;3.90;;;4.40;93.50;;;;;;947723;151;27585;-76
2023/01/23 07:39:52;;;;;;;4.30;3.93;;;4.40;93.70;;;;;;946426;151;27311;-76
2023/01/23 07:42:18;;;;;;;4.53;4.13;;;4.50;93.90;;;;;;946818;151;27385;-79
2023/01/23 07:44:44;;;;;;;4.67;4.13;;;4.50;93.90;;;;;;947691;151;27964;-75
2023/01/23 07:47:11;;;;;;;4.80;4.30;;;4.60;94.00;;;;;;947731;148;27357;-76
2023/01/23 07:49:37;;;;;;;4.37;3.97;;;4.60;94.00;;;;;;947466;151;27408;-77
2023/01/23 07:52:04;;;;;;;5.53;4.53;;;4.70;94.10;;;;;;947348;149;27388;-75
2023/01/23 07:54:31;;;;;;;4.40;3.90;;;4.80;94.10;;;;;;948746;148;27327;-79
2023/01/23 07:56:57;;;;;;;4.57;4.10;;;4.80;94.10;;;;;;948216;151;27342;-76
2023/01/23 07:59:24;;;;;;;4.33;3.93;;;4.90;94.10;;;;;;948383;151;27381;-76
2023/01/23 08:01:51;;;;;;;4.53;4.13;;;4.90;94.20;;;;;;948170;151;27287;-76
2023/01/23 08:04:17;;;;;;;5.57;4.00;;;5.00;94.20;;;;;;948438;151;27252;-77
2023/01/23 08:06:44;;;;;;;4.63;3.83;;;5.10;94.20;;;;;;946054;150;27388;-77
2023/01/23 08:09:10;;;;;;;4.60;4.20;;;5.10;94.10;;;;;;936516;152;28502;-76
2023/01/23 08:11:37;;;;;;;4.70;4.27;;;5.10;94.10;;;;;;937545;149;27446;-77
2023/01/23 08:14:03;;;;;;;5.37;4.27;;;5.20;94.00;;;;;;936868;152;27249;-78
2023/01/23 08:16:30;;;;;;;4.37;3.97;;;5.30;93.90;;;;;;937029;149;27294;-79
2023/01/23 08:18:56;;;;;;;5.13;4.63;;;5.30;93.80;;;;;;938004;152;27336;-77
2023/01/23 08:21:23;;;;;;;4.23;3.93;;;5.40;93.70;;;;;;936176;152;27378;-76
2023/01/23 08:23:50;;;;;;;4.40;4.00;;;5.40;93.50;;;;;;936472;152;27276;-76
2023/01/23 08:26:16;;;;;;;4.10;3.70;;;5.50;93.40;;;;;;936852;152;27382;-77
2023/01/23 08:28:43;;;;;;;4.63;4.03;;;5.50;93.20;;;;;;936965;152;27343;-80
2023/01/23 08:31:09;;;;;;;4.43;4.03;;;5.50;93.00;;;;;;937052;152;27923;-77
2023/01/23 08:33:36;;;;;;;4.70;4.10;;;5.60;93.00;;;;;;936027;152;27366;-76
2023/01/23 08:36:03;;;;;;;4.30;3.90;;;5.60;92.80;;;;;;937009;152;27305;-76
2023/01/23 08:38:30;;;;;;;4.50;4.10;;;5.60;92.70;;;;;;937178;152;27266;-76
2023/01/23 08:40:56;;;;;;;4.30;3.90;;;5.70;92.70;;;;;;936784;152;27464;-75
2023/01/23 08:43:22;;;;;;;4.37;3.97;;;5.70;92.50;;;;;;937020;152;27708;-76
2023/01/23 08:45:49;;;;;;;3.70;3.40;;;5.70;92.40;;;;;;936767;150;27321;-75
2023/01/23 08:48:16;;;;;;;4.30;3.90;;;5.80;92.40;;;;;;936926;152;27337;-76
2023/01/23 08:50:42;;;;;;;3.97;3.67;;;5.80;92.30;;;;;;937081;152;27341;-79
2023/01/23 08:53:09;;;;;;;4.53;4.10;;;5.80;92.30;;;;;;937082;150;27332;-77
2023/01/23 08:55:37;;;;;;;4.07;3.67;;;5.90;92.20;;;;;;936991;152;27465;-77
2023/01/23 08:58:02;;;;;;;4.00;3.70;;;6.00;92.20;;;;;;937067;152;27602;-76
2023/01/23 09:00:29;;;;;;;3.77;3.47;;;6.00;92.10;;;;;;937367;152;27278;-79
2023/01/23 09:02:55;;;;;;;3.67;3.37;;;6.10;92.00;;;;;;937114;152;27336;-76
2023/01/23 09:05:22;;;;;;;4.10;3.70;;;6.10;91.90;;;;;;936448;152;27350;-77
2023/01/23 09:07:48;;;;;;;3.77;3.40;;;6.10;91.70;;;;;;937176;150;27305;-77
2023/01/23 09:10:15;;;;;;;3.73;3.43;;;6.20;91.50;;;;;;917654;152;27294;-77
2023/01/23 09:12:42;;;;;;;3.87;3.33;;;6.20;91.40;;;;;;919069;152;27965;-80
2023/01/23 09:15:08;;;;;;;6.73;4.00;;;6.30;91.30;;;;;;934361;149;27805;-76
2023/01/23 09:17:35;;;;;;;5.27;3.87;;;6.30;91.20;;;;;;918461;152;27922;-76
2023/01/23 09:20:04;;;;;;;9.13;4.90;;;6.30;91.00;;;;;;934508;149;27321;-75
2023/01/23 09:22:28;;;;;;;8.37;5.37;;;6.40;90.90;;;;;;933860;149;27423;-78
2023/01/23 09:24:54;;;;;;;4.60;3.37;;;6.40;90.80;;;;;;934340;149;27499;-77
2023/01/23 09:27:21;;;;;;;4.13;3.33;;;6.40;90.70;;;;;;934704;149;27450;-76
2023/01/23 09:29:47;;;;;;;3.67;3.37;;;6.50;90.70;;;;;;933659;150;27469;-77
2023/01/23 09:32:14;;;;;;;3.17;2.90;;;6.50;90.60;;;;;;933484;153;27325;-77
2023/01/23 09:34:41;;;;;;;3.63;3.33;;;6.50;90.60;;;;;;935643;149;27699;-78
2023/01/23 09:37:07;;;;;;;5.53;3.23;;;6.60;90.40;;;;;;934116;149;27385;-78
2023/01/23 09:39:34;;;;;;;3.87;3.47;;;6.60;90.30;;;;;;933443;149;27417;-78
2023/01/23 09:42:07;;;;;;;3.67;3.37;;;6.70;90.10;;;;;;935324;149;27393;-78
2023/01/23 09:44:41;;;;;;;3.40;3.10;;;6.70;90.10;;;;;;935063;149;27328;-78
2023/01/23 09:47:10;;;;;;;3.73;3.33;;;6.80;90.20;;;;;;932907;149;27445;-80
2023/01/23 09:49:49;;;;;;;3.53;3.23;;;6.80;90.10;;;;;;931754;150;27461;-79
2023/01/23 09:52:15;;;;;;;3.67;3.37;;;6.80;90.00;;;;;;933891;150;27365;-78
2023/01/23 09:54:57;;;;;;;4.27;3.50;;;6.90;89.80;;;;;;933561;150;27461;-79
2023/01/23 09:57:24;;;;;;;3.90;3.30;;;6.90;89.10;;;;;;933192;149;27383;-79
2023/01/23 10:02:21;;;;;;;4.60;4.00;;;6.90;89.20;;;;;;973286;145;39571;-77
2023/01/23 10:04:48;;;;;;;5.13;4.63;;;7.00;89.20;;;;;;970941;145;27231;-78
2023/01/23 10:07:33;;;;;;;4.90;4.43;;;7.00;89.30;;;;;;970210;145;27258;-78
2023/01/23 10:10:20;;;;;;;5.37;4.87;;;7.00;89.30;;;;;;971790;145;27285;-80
2023/01/23 10:12:53;;;;;;;5.20;4.70;;;7.00;89.50;;;;;;973711;145;27402;-78
2023/01/23 10:15:38;;;;;;;5.80;5.20;;;7.10;89.60;;;;;;971477;145;27242;-77
2023/01/23 10:18:13;;;;;;;5.60;4.97;;;7.10;89.80;;;;;;971684;145;27238;-77
2023/01/23 10:21:00;;;;;;;5.97;4.57;;;7.10;89.60;;;;;;970639;145;27288;-78
2023/01/23 10:23:36;;;;;;;4.83;4.33;;;7.10;89.20;;;;;;966476;145;27357;-76
2023/01/23 10:26:02;;;;;;;5.03;4.63;;;7.10;88.70;;;;;;964773;148;27766;-77
2023/01/23 10:28:37;;;;;;;5.70;5.20;;;7.20;88.60;;;;;;965856;148;27229;-77
2023/01/23 10:31:01;;;;;;;5.90;4.57;;;7.20;88.50;;;;;;966268;148;27317;-80
2023/01/23 10:33:31;;;;;;;4.93;4.53;;;7.20;88.60;;;;;;964366;148;27695;-76
2023/01/23 10:36:18;;;;;;;4.50;4.10;;;7.20;88.50;;;;;;963689;148;27415;-76
2023/01/23 10:38:48;;;;;;;8.60;6.47;;;7.20;88.50;;;;;;965102;148;27215;-76
2023/01/23 10:41:18;;;;;;;8.23;5.90;;;7.20;88.30;;;;;;964806;145;27377;-78
2023/01/23 10:43:41;;;;;;;7.73;5.00;;;7.20;88.30;;;;;;965178;148;27314;-77
2023/01/23 10:46:13;;;;;;;5.60;4.57;;;7.30;88.20;;;;;;965412;148;27263;-77
2023/01/23 10:48:43;;;;;;;4.13;3.73;;;7.30;88.40;;;;;;965732;148;27231;-77
2023/01/23 10:51:37;;;;;;;4.40;4.00;;;7.40;88.30;;;;;;965436;145;27287;-78
2023/01/23 10:54:06;;;;;;;3.93;3.63;;;7.40;88.10;;;;;;965847;145;27310;-80
2023/01/23 10:56:33;;;;;;;4.20;3.80;;;7.50;87.80;;;;;;965660;148;27986;-76
2023/01/23 10:58:59;;;;;;;3.90;3.60;;;7.50;87.50;;;;;;963939;148;27274;-77
2023/01/23 11:01:26;;;;;;;4.73;4.00;;;7.50;87.20;;;;;;968284;145;27298;-77
2023/01/23 11:03:52;;;;;;;4.60;4.20;;;7.60;87.30;;;;;;969796;147;27233;-78
2023/01/23 11:06:19;;;;;;;4.20;3.80;;;7.60;87.30;;;;;;970956;145;27757;-78
2023/01/23 11:08:59;;;;;;;4.50;4.10;;;7.70;87.30;;;;;;970764;147;29453;-77
2023/01/23 11:11:24;;;;;;;4.40;4.00;;;7.70;87.10;;;;;;970844;145;27266;-77
2023/01/23 11:13:50;;;;;;;4.07;3.73;;;7.80;86.90;;;;;;969677;147;27241;-78
2023/01/23 11:16:22;;;;;;;4.40;4.00;;;7.80;86.60;;;;;;967807;147;27301;-78
2023/01/23 11:18:52;;;;;;;3.97;3.60;;;7.90;86.50;;;;;;969121;147;27261;-78
2023/01/23 11:21:24;;;;;;;3.97;3.60;;;7.90;85.50;;;;;;967923;147;27294;-77
2023/01/23 11:23:50;;;;;;;4.47;4.07;;;7.90;85.30;;;;;;970473;147;27407;-78
2023/01/23 11:26:32;;;;;;;4.10;3.70;;;8.00;85.10;;;;;;967452;147;27328;-78
2023/01/23 11:28:59;;;;;;;4.20;3.80;;;8.00;84.90;;;;;;970168;147;27334;-77
2023/01/23 11:31:28;;;;;;;4.37;3.97;;;8.00;84.40;;;;;;969631;145;27207;-77
2023/01/23 11:33:57;;;;;;;3.63;3.33;;;8.00;83.80;;;;;;970363;147;27378;-77
2023/01/23 11:36:36;;;;;;;4.30;3.90;;;8.00;83.50;;;;;;971160;147;27199;-78
2023/01/23 11:39:15;;;;;;;5.00;4.20;;;8.00;83.50;;;;;;970546;147;27238;-79
2023/01/23 11:41:41;;;;;;;4.47;4.07;;;8.00;82.80;;;;;;948681;147;27410;-77
2023/01/23 11:44:07;;;;;;;4.53;4.13;;;7.90;82.10;;;;;;971329;147;27397;-77
2023/01/23 11:46:36;;;;;;;5.60;3.40;;;7.90;81.70;;;;;;970491;147;27309;-76
2023/01/23 11:49:03;;;;;;;4.23;3.77;;;7.80;81.90;;;;;;971524;147;27307;-80
2023/01/23 11:51:32;;;;;;;4.20;3.80;;;7.70;81.90;;;;;;968504;145;27290;-79
2023/01/23 11:54:05;;;;;;;3.97;3.67;;;7.70;82.10;;;;;;969952;147;28396;-77
2023/01/23 11:56:37;;;;;;;4.40;4.00;;;7.70;82.70;;;;;;969181;147;27234;-77
2023/01/23 11:59:08;;;;;;;3.97;3.57;;;7.60;83.00;;;;;;971180;147;27373;-76
2023/01/23 12:01:33;;;;;;;3.10;2.90;;;7.70;83.50;;;;;;976079;143;27445;-77
2023/01/23 12:04:31;;;;;;;3.47;3.17;;;7.70;83.70;;;;;;959346;146;27337;-76
2023/01/23 12:07:15;;;;;;;3.53;3.23;;;7.80;83.90;;;;;;955770;146;27455;-77
2023/01/23 12:09:44;;;;;;;3.83;3.50;;;7.90;84.00;;;;;;970246;147;27291;-76
2023/01/23 12:12:11;;;;;;;3.70;3.30;;;7.90;84.00;;;;;;970354;147;27273;-79
2023/01/23 12:14:40;;;;;;;3.63;3.33;;;8.00;84.10;;;;;;969956;147;27302;-77
2023/01/23 12:17:07;;;;;;;4.23;3.83;;;8.10;83.80;;;;;;971649;147;27254;-78
2023/01/23 12:19:52;;;;;;;3.33;3.07;;;8.20;83.80;;;;;;970433;147;27274;-77
2023/01/23 12:22:43;;;;;;;3.70;3.40;;;8.30;83.40;;;;;;970989;147;27443;-79
2023/01/23 12:25:21;;;;;;;3.77;3.40;;;8.30;83.00;;;;;;954140;147;27355;-78
2023/01/23 12:27:47;;;;;;;6.30;3.50;;;8.30;82.30;;;;;;953156;148;27374;-78
2023/01/23 12:30:37;;;;;;;3.70;3.40;;;8.30;81.90;;;;;;959651;147;27269;-81
2023/01/23 12:33:14;;;;;;;3.57;3.27;;;8.30;81.60;;;;;;969831;147;27920;-79
2023/01/23 12:36:18;;;;;;;3.80;3.47;;;8.30;81.60;;;;;;954991;147;27230;-81
2023/01/23 12:39:09;;;;;;;4.20;3.80;;;8.30;81.60;;;;;;970076;147;27376;-79
2023/01/23 12:41:38;;;;;;;4.10;3.70;;;8.20;81.60;;;;;;968609;147;27310;-78
2023/01/23 12:44:26;;;;;;;4.60;4.20;;;8.20;81.40;;;;;;969545;147;27954;-81
2023/01/23 12:46:55;;;;;;;4.60;4.07;;;8.20;81.10;;;;;;970589;145;27748;-78
2023/01/23 12:49:28;;;;;;;4.07;3.77;;;8.10;80.70;;;;;;969331;147;28110;-78
2023/01/23 12:51:57;;;;;;;7.03;4.63;;;8.10;80.30;;;;;;970467;145;27367;-77
2023/01/23 12:54:24;;;;;;;7.40;5.20;;;8.00;80.00;;;;;;968692;147;27319;-78
2023/01/23 12:56:50;;;;;;;7.40;4.47;;;8.00;80.20;;;;;;968528;147;27410;-78
2023/01/23 12:59:35;;;;;;;4.73;4.03;;;8.00;80.20;;;;;;970631;147;27298;-79
2023/01/23 13:02:13;;;;;;;6.00;5.10;;;7.90;80.50;;;;;;936376;150;27487;-79
2023/01/23 13:05:00;;;;;;;5.00;4.50;;;7.90;80.60;;;;;;953272;148;27708;-78
2023/01/23 13:07:36;;;;;;;4.83;4.37;;;7.90;80.50;;;;;;961586;148;27274;-77
2023/01/23 13:11:39;;;;;;;4.00;3.70;;;7.90;80.80;;;;;;961971;146;27270;-77
2023/01/23 13:12:57;;;;;;;5.63;3.90;;;7.90;80.90;;;;;;960788;148;27380;-79